createdAt,value
2018-12-02T00:02:07.841Z,94.90
2018-12-02T00:04:37.874Z,93.81
2018-12-02T00:07:07.850Z,94.38
2018-12-02T00:09:37.641Z,94.58
2018-12-02T00:12:07.781Z,94.80
2018-12-02T00:14:37.665Z,95.27
2018-12-02T00:17:07.610Z,95.46
2018-12-02T00:19:37.233Z,95.59
2018-12-02T00:22:07.242Z,95.67
2018-12-02T00:24:36.908Z,95.62
2018-12-02T00:27:07.094Z,95.92
2018-12-02T00:29:36.989Z,96.45
2018-12-02T00:32:06.741Z,96.03
2018-12-02T00:34:36.600Z,96.10
2018-12-02T00:37:06.674Z,96.09
2018-12-02T00:39:36.576Z,96.47
2018-12-02T00:42:06.404Z,96.31
2018-12-02T00:44:36.014Z,96.29
2018-12-02T00:47:06.335Z,96.25
2018-12-02T00:49:36.195Z,96.70
2018-12-02T00:52:06.289Z,96.43
2018-12-02T00:54:37.042Z,96.62
2018-12-02T00:57:06.853Z,96.83
2018-12-02T00:59:36.581Z,96.86
2018-12-02T01:02:06.561Z,97.41
2018-12-02T01:04:36.398Z,97.51
2018-12-02T01:07:06.587Z,97.96
2018-12-02T01:09:36.307Z,98.27
2018-12-02T01:12:06.288Z,98.27
2018-12-02T01:14:36.052Z,97.98
2018-12-02T01:17:05.955Z,97.73
2018-12-02T01:19:35.724Z,97.80
2018-12-02T01:22:05.618Z,97.23
2018-12-02T01:24:35.456Z,97.47
2018-12-02T01:27:05.530Z,97.27
2018-12-02T01:29:35.405Z,96.32
2018-12-02T01:32:05.277Z,96.12
2018-12-02T01:34:35.219Z,96.02
2018-12-02T01:37:05.063Z,96.11
2018-12-02T01:39:35.011Z,96.77
2018-12-02T01:42:05.456Z,96.89
2018-12-02T01:44:35.236Z,96.58
2018-12-02T01:47:05.226Z,97.11
2018-12-02T01:49:35.022Z,97.26
2018-12-02T01:52:04.838Z,96.75
2018-12-02T01:54:34.661Z,96.75
2018-12-02T01:57:04.382Z,96.96
2018-12-02T01:59:34.188Z,96.70
2018-12-02T02:02:03.895Z,96.88
2018-12-02T02:04:33.751Z,97.48
2018-12-02T02:07:03.643Z,97.79
2018-12-02T02:09:33.492Z,97.50
2018-12-02T02:12:03.326Z,97.55
2018-12-02T02:14:33.169Z,97.56
2018-12-02T02:17:02.949Z,98.17
2018-12-02T02:19:32.687Z,98.24
2018-12-02T02:22:02.470Z,98.30
2018-12-02T02:24:32.201Z,98.08
2018-12-02T02:27:02.094Z,98.04
2018-12-02T02:29:31.680Z,98.30
2018-12-02T02:32:01.432Z,98.31
2018-12-02T02:34:31.167Z,98.39
2018-12-02T02:37:01.271Z,98.51
2018-12-02T02:39:30.922Z,98.89
2018-12-02T02:42:00.712Z,99.10
2018-12-02T02:44:30.469Z,99.30
2018-12-02T02:47:00.261Z,99.98
2018-12-02T02:49:30.001Z,99.94
2018-12-02T02:51:59.677Z,99.77
2018-12-02T02:54:29.369Z,99.30
2018-12-02T02:56:59.150Z,99.11
2018-12-02T02:59:28.942Z,99.40
2018-12-02T03:01:58.469Z,99.73
2018-12-02T03:04:28.440Z,99.69
2018-12-02T03:06:59.259Z,99.58
2018-12-02T03:09:29.114Z,99.31
2018-12-02T03:11:58.852Z,99.06
2018-12-02T03:14:29.035Z,99.45
2018-12-02T03:16:58.689Z,99.60
2018-12-02T03:19:29.713Z,99.35
2018-12-02T03:21:59.888Z,99.39
2018-12-02T03:24:29.498Z,98.91
2018-12-02T03:26:59.170Z,99.02
2018-12-02T03:29:28.937Z,98.91
2018-12-02T03:31:58.649Z,99.16
2018-12-02T03:34:28.862Z,99.24
2018-12-02T03:36:58.569Z,99.04
2018-12-02T03:39:28.125Z,98.96
2018-12-02T03:41:57.749Z,99.07
2018-12-02T03:44:27.582Z,99.30
2018-12-02T03:46:57.250Z,99.34
2018-12-02T03:49:27.020Z,99.78
2018-12-02T03:51:56.691Z,99.70
2018-12-02T03:54:26.517Z,99.88
2018-12-02T03:56:56.213Z,100.00
2018-12-02T03:59:25.996Z,100.00
2018-12-02T04:01:55.747Z,100.00
2018-12-02T04:04:25.522Z,100.00
2018-12-02T04:06:55.373Z,100.00
2018-12-02T04:09:25.043Z,100.00
2018-12-02T04:11:54.781Z,100.00
2018-12-02T04:14:24.577Z,100.00
2018-12-02T04:16:54.218Z,100.00
2018-12-02T04:19:23.793Z,100.00
2018-12-02T04:21:53.686Z,100.00
2018-12-02T04:24:23.442Z,100.00
2018-12-02T04:26:53.138Z,100.00
2018-12-02T04:29:23.112Z,100.00
2018-12-02T04:31:52.784Z,100.00
2018-12-02T04:34:22.541Z,100.00
2018-12-02T04:36:52.278Z,100.00
2018-12-02T04:39:22.073Z,100.00
2018-12-02T04:41:52.212Z,100.00
2018-12-02T04:44:22.365Z,100.00
2018-12-02T04:46:52.988Z,100.00
2018-12-02T04:49:22.917Z,100.00
2018-12-02T04:51:52.655Z,100.00
2018-12-02T04:54:22.506Z,100.00
2018-12-02T04:56:52.381Z,100.00
2018-12-02T04:59:22.146Z,100.00
2018-12-02T05:01:51.964Z,100.00
2018-12-02T05:04:21.845Z,100.00
2018-12-02T05:06:51.747Z,100.00
2018-12-02T05:09:21.361Z,100.00
2018-12-02T05:11:53.090Z,100.00
2018-12-02T05:14:22.934Z,100.00
2018-12-02T05:16:52.644Z,100.00
2018-12-02T05:19:22.445Z,100.00
2018-12-02T05:21:52.261Z,100.00
2018-12-02T05:24:21.909Z,100.00
2018-12-02T05:26:51.694Z,100.00
2018-12-02T05:29:22.334Z,100.00
2018-12-02T05:31:52.038Z,100.00
2018-12-02T05:34:21.896Z,100.00
2018-12-02T05:36:52.180Z,100.00
2018-12-02T05:39:22.029Z,100.00
2018-12-02T05:41:56.929Z,100.00
2018-12-02T05:44:26.838Z,100.00
2018-12-02T05:46:56.796Z,100.00
2018-12-02T05:49:26.479Z,100.00
2018-12-02T05:51:56.556Z,100.00
2018-12-02T05:54:26.267Z,100.00
2018-12-02T05:56:56.178Z,100.00
2018-12-02T05:59:26.162Z,100.00
2018-12-02T06:01:56.113Z,100.00
2018-12-02T06:04:26.040Z,99.85
2018-12-02T06:06:55.963Z,99.43
2018-12-02T06:09:25.902Z,98.74
2018-12-02T06:11:55.781Z,98.49
2018-12-02T06:14:25.622Z,98.04
2018-12-02T06:16:55.352Z,96.65
2018-12-02T06:19:25.217Z,95.97
2018-12-02T06:21:55.010Z,95.12
2018-12-02T06:24:24.960Z,95.27
2018-12-02T06:26:54.819Z,93.36
2018-12-02T06:29:24.656Z,92.45
2018-12-02T06:31:54.453Z,90.95
2018-12-02T06:34:24.188Z,88.91
2018-12-02T06:36:53.987Z,85.91
2018-12-02T06:39:23.732Z,83.26
2018-12-02T06:41:54.225Z,81.75
2018-12-02T06:44:23.870Z,79.21
2018-12-02T06:46:53.620Z,75.43
2018-12-02T06:49:24.597Z,71.90
2018-12-02T06:51:54.511Z,69.79
2018-12-02T06:54:31.662Z,67.78
2018-12-02T06:57:06.340Z,65.93
2018-12-02T06:59:46.858Z,64.53
2018-12-02T07:02:30.367Z,63.61
2018-12-02T07:05:00.360Z,63.75
2018-12-02T07:07:30.203Z,61.09
2018-12-02T07:09:59.874Z,57.36
2018-12-02T07:12:29.548Z,57.28
2018-12-02T07:14:59.208Z,56.83
2018-12-02T07:17:32.662Z,58.22
2018-12-02T07:20:06.873Z,57.49
2018-12-02T07:22:38.896Z,57.33
2018-12-02T07:25:12.773Z,56.60
2018-12-02T07:27:42.528Z,55.02
2018-12-02T07:30:12.588Z,54.40
2018-12-02T07:32:42.460Z,55.10
2018-12-02T07:35:13.420Z,56.71
2018-12-02T07:37:45.671Z,55.49
2018-12-02T07:40:36.950Z,56.69
2018-12-02T07:43:08.564Z,55.49
2018-12-02T07:45:38.231Z,54.97
2018-12-02T07:48:08.468Z,55.60
2018-12-02T07:50:38.236Z,54.46
2018-12-02T07:53:08.070Z,54.05
2018-12-02T07:55:37.894Z,53.83
2018-12-02T07:58:12.347Z,54.13
2018-12-02T08:00:42.263Z,53.85
2018-12-02T08:04:14.846Z,52.17
2018-12-02T08:06:44.552Z,51.42
2018-12-02T08:09:14.191Z,49.67
2018-12-02T08:11:43.846Z,49.84
2018-12-02T08:14:13.679Z,49.43
2018-12-02T08:16:43.311Z,49.81
2018-12-02T08:19:12.963Z,50.67
2018-12-02T08:21:42.770Z,48.68
2018-12-02T08:24:12.434Z,48.60
2018-12-02T08:26:42.296Z,48.24
2018-12-02T08:29:12.151Z,46.40
2018-12-02T08:31:41.787Z,48.70
2018-12-02T08:34:11.452Z,48.48
2018-12-02T08:36:41.329Z,46.62
2018-12-02T08:39:12.667Z,47.06
2018-12-02T08:41:42.481Z,48.13
2018-12-02T08:44:12.180Z,46.35
2018-12-02T08:46:42.218Z,45.44
2018-12-02T08:49:11.895Z,45.79
2018-12-02T08:51:41.731Z,45.04
2018-12-02T08:54:11.910Z,44.98
2018-12-02T08:56:41.779Z,45.93
2018-12-02T08:59:11.646Z,44.55
2018-12-02T09:01:41.356Z,43.60
2018-12-02T09:04:11.277Z,42.66
2018-12-02T09:06:40.885Z,42.28
2018-12-02T09:09:11.803Z,43.18
2018-12-02T09:11:41.579Z,43.37
2018-12-02T09:14:11.935Z,43.19
2018-12-02T09:16:42.036Z,44.75
2018-12-02T09:19:11.868Z,44.54
2018-12-02T09:21:41.768Z,43.70
2018-12-02T09:24:11.700Z,41.35
2018-12-02T09:26:41.446Z,41.02
2018-12-02T09:29:11.135Z,42.55
2018-12-02T09:31:40.828Z,43.51
2018-12-02T09:34:10.615Z,43.28
2018-12-02T09:36:40.275Z,43.24
2018-12-02T09:39:11.015Z,43.40
2018-12-02T09:41:40.880Z,41.58
2018-12-02T09:44:10.833Z,39.30
2018-12-02T09:46:40.976Z,38.91
2018-12-02T09:49:10.659Z,39.60
2018-12-02T09:51:40.494Z,39.97
2018-12-02T09:54:10.460Z,40.14
2018-12-02T09:56:40.311Z,39.46
2018-12-02T09:59:10.328Z,41.04
2018-12-02T10:01:41.233Z,40.21
2018-12-02T10:04:11.269Z,41.51
2018-12-02T10:06:41.171Z,40.80
2018-12-02T10:09:11.845Z,38.12
2018-12-02T10:11:41.724Z,38.35
2018-12-02T10:14:11.602Z,38.89
2018-12-02T10:16:41.464Z,38.83
2018-12-02T10:19:11.507Z,37.35
2018-12-02T10:21:41.180Z,38.05
2018-12-02T10:24:11.027Z,39.85
2018-12-02T10:26:40.865Z,39.83
2018-12-02T10:29:10.767Z,38.94
2018-12-02T10:31:40.652Z,40.10
2018-12-02T10:34:10.479Z,38.62
2018-12-02T10:36:40.283Z,38.89
2018-12-02T10:39:11.246Z,38.46
2018-12-02T10:41:41.174Z,38.59
2018-12-02T10:44:10.866Z,38.11
2018-12-02T10:46:43.905Z,38.17
2018-12-02T10:49:10.642Z,37.95
2018-12-02T10:51:40.762Z,37.73
2018-12-02T10:54:10.465Z,39.00
2018-12-02T10:56:40.210Z,40.77
2018-12-02T10:59:10.666Z,40.31
2018-12-02T11:01:43.902Z,38.31
2018-12-02T11:04:13.777Z,37.40
2018-12-02T11:06:43.611Z,37.68
2018-12-02T11:09:14.254Z,39.25
2018-12-02T11:11:45.034Z,40.34
2018-12-02T11:14:14.341Z,41.26
2018-12-02T11:16:44.184Z,38.75
2018-12-02T11:19:13.892Z,37.91
2018-12-02T11:21:43.891Z,38.35
2018-12-02T11:24:13.774Z,37.46
2018-12-02T11:26:43.704Z,37.43
2018-12-02T11:29:13.571Z,38.87
2018-12-02T11:31:43.540Z,38.10
2018-12-02T11:34:13.305Z,39.42
2018-12-02T11:36:43.057Z,40.08
2018-12-02T11:39:13.020Z,40.38
2018-12-02T11:41:42.960Z,38.63
2018-12-02T11:44:12.861Z,36.73
2018-12-02T11:46:42.908Z,38.28
2018-12-02T11:49:12.683Z,37.46
2018-12-02T11:51:42.425Z,37.96
2018-12-02T11:54:12.371Z,37.33
2018-12-02T11:56:42.364Z,36.44
2018-12-02T11:59:12.089Z,37.92
2018-12-02T12:01:41.930Z,41.60
2018-12-02T12:04:11.681Z,43.08
2018-12-02T12:06:41.497Z,42.88
2018-12-02T12:09:11.280Z,40.96
2018-12-02T12:11:41.218Z,41.91
2018-12-02T12:14:11.048Z,41.36
2018-12-02T12:16:41.250Z,41.74
2018-12-02T12:19:11.168Z,41.34
2018-12-02T12:21:41.013Z,40.16
2018-12-02T12:24:10.958Z,40.50
2018-12-02T12:26:40.997Z,40.82
2018-12-02T12:29:10.734Z,40.64
2018-12-02T12:31:40.351Z,41.07
2018-12-02T12:34:10.027Z,41.91
2018-12-02T12:36:39.713Z,43.21
2018-12-02T12:39:10.422Z,44.97
2018-12-02T12:41:40.339Z,45.95
2018-12-02T12:44:11.623Z,47.18
2018-12-02T12:46:41.405Z,46.93
2018-12-02T12:49:11.505Z,45.74
2018-12-02T12:51:41.824Z,46.42
2018-12-02T12:54:11.726Z,46.07
2018-12-02T12:56:41.532Z,48.05
2018-12-02T12:59:11.471Z,48.37
2018-12-02T13:01:41.341Z,49.02
2018-12-02T13:04:11.236Z,49.31
2018-12-02T13:06:41.774Z,49.78
2018-12-02T13:09:11.489Z,50.09
2018-12-02T13:11:42.339Z,50.51
2018-12-02T13:14:12.226Z,50.65
2018-12-02T13:16:42.249Z,52.15
2018-12-02T13:19:12.223Z,52.04
2018-12-02T13:21:42.091Z,51.92
2018-12-02T13:24:12.859Z,52.43
2018-12-02T13:26:42.717Z,52.45
2018-12-02T13:29:12.393Z,52.76
2018-12-02T13:31:42.275Z,52.19
2018-12-02T13:34:12.049Z,53.12
2018-12-02T13:36:41.853Z,53.36
2018-12-02T13:39:12.145Z,52.93
2018-12-02T13:41:42.120Z,53.38
2018-12-02T13:44:12.006Z,52.53
2018-12-02T13:46:41.897Z,52.65
2018-12-02T13:49:12.498Z,53.70
2018-12-02T13:51:42.302Z,53.96
2018-12-02T13:54:17.208Z,54.44
2018-12-02T13:56:46.971Z,54.74
2018-12-02T13:59:16.650Z,55.64
2018-12-02T14:01:46.379Z,56.25
2018-12-02T14:04:16.915Z,56.42
2018-12-02T14:06:46.630Z,56.71
2018-12-02T14:09:16.609Z,57.87
2018-12-02T14:11:46.669Z,58.47
2018-12-02T14:14:16.609Z,58.96
2018-12-02T14:17:03.118Z,59.42
2018-12-02T14:19:34.407Z,60.45
2018-12-02T14:22:03.192Z,60.25
2018-12-02T14:24:34.103Z,60.75
2018-12-02T14:27:04.005Z,61.37
2018-12-02T14:29:35.680Z,62.20
2018-12-02T14:32:11.881Z,62.45
2018-12-02T14:34:41.760Z,62.65
2018-12-02T14:37:11.673Z,63.19
2018-12-02T14:39:41.645Z,63.71
2018-12-02T14:42:11.402Z,64.10
2018-12-02T14:44:41.111Z,65.77
2018-12-02T14:47:10.826Z,66.31
2018-12-02T14:49:40.717Z,66.47
2018-12-02T14:52:10.510Z,67.01
2018-12-02T14:54:41.058Z,68.45
2018-12-02T14:57:11.109Z,68.28
2018-12-02T14:59:40.968Z,68.17
2018-12-02T15:02:10.793Z,69.21
2018-12-02T15:04:40.662Z,69.76
2018-12-02T15:07:10.559Z,70.53
2018-12-02T15:09:40.468Z,70.63
2018-12-02T15:12:10.490Z,70.54
2018-12-02T15:14:40.217Z,70.89
2018-12-02T15:17:09.978Z,70.05
2018-12-02T15:19:39.838Z,69.38
2018-12-02T15:22:10.117Z,70.10
2018-12-02T15:24:39.955Z,70.37
2018-12-02T15:27:09.833Z,70.96
2018-12-02T15:29:39.700Z,71.64
2018-12-02T15:32:09.661Z,73.56
2018-12-02T15:34:39.419Z,71.95
2018-12-02T15:37:09.769Z,73.02
2018-12-02T15:39:39.442Z,72.19
2018-12-02T15:42:09.374Z,73.05
2018-12-02T15:44:39.477Z,72.85
2018-12-02T15:47:09.453Z,73.83
2018-12-02T15:49:39.531Z,74.03
2018-12-02T15:52:09.442Z,74.77
2018-12-02T15:54:39.069Z,75.79
2018-12-02T15:57:08.857Z,76.42
2018-12-02T15:59:38.663Z,76.98
2018-12-02T16:02:08.530Z,76.54
2018-12-02T16:05:41.176Z,76.68
2018-12-02T16:08:11.007Z,76.96
2018-12-02T16:10:41.024Z,77.06
2018-12-02T16:13:12.098Z,77.05
2018-12-02T16:15:41.958Z,75.61
2018-12-02T16:18:14.032Z,76.05
2018-12-02T16:20:51.641Z,76.15
2018-12-02T16:23:24.650Z,75.92
2018-12-02T16:25:54.431Z,75.74
2018-12-02T16:28:24.404Z,75.32
2018-12-02T16:30:56.001Z,75.66
2018-12-02T16:33:25.908Z,76.24
2018-12-02T16:35:55.844Z,77.03
2018-12-02T16:38:25.655Z,77.63
2018-12-02T16:40:55.688Z,79.37
2018-12-02T16:43:25.464Z,79.96
2018-12-02T16:45:55.251Z,79.52
2018-12-02T16:48:26.413Z,80.23
2018-12-02T16:50:56.269Z,81.15
2018-12-02T16:53:27.885Z,80.68
2018-12-02T16:56:00.988Z,80.91
2018-12-02T16:58:42.388Z,81.06
2018-12-02T17:01:27.930Z,82.00
2018-12-02T17:04:01.077Z,82.26
2018-12-02T17:06:31.058Z,82.49
2018-12-02T17:09:01.194Z,82.89
2018-12-02T17:11:31.036Z,82.35
2018-12-02T17:14:01.028Z,83.09
2018-12-02T17:16:30.817Z,83.45
2018-12-02T17:19:00.823Z,83.90
2018-12-02T17:21:30.752Z,84.24
2018-12-02T17:24:00.853Z,84.18
2018-12-02T17:26:30.601Z,86.83
2018-12-02T17:29:00.467Z,85.27
2018-12-02T17:31:33.262Z,84.79
2018-12-02T17:34:03.192Z,84.80
2018-12-02T17:36:33.151Z,85.45
2018-12-02T17:39:08.193Z,85.39
2018-12-02T17:41:38.154Z,85.32
2018-12-02T17:44:08.464Z,85.12
2018-12-02T17:46:38.524Z,84.56
2018-12-02T17:49:08.462Z,84.39
2018-12-02T17:51:38.425Z,84.71
2018-12-02T17:54:09.338Z,84.72
2018-12-02T17:56:39.203Z,85.07
2018-12-02T17:59:09.162Z,85.81
2018-12-02T18:01:38.973Z,85.83
2018-12-02T18:04:09.074Z,85.68
2018-12-02T18:06:38.772Z,85.72
2018-12-02T18:09:11.520Z,86.62
2018-12-02T18:11:41.436Z,87.42
2018-12-02T18:14:11.335Z,87.66
2018-12-02T18:16:41.203Z,87.34
2018-12-02T18:19:11.119Z,87.91
2018-12-02T18:21:40.972Z,87.91
2018-12-02T18:24:10.873Z,88.48
2018-12-02T18:26:40.832Z,88.36
2018-12-02T18:29:10.675Z,88.14
2018-12-02T18:31:40.629Z,88.31
2018-12-02T18:34:10.498Z,88.51
2018-12-02T18:36:40.775Z,88.68
2018-12-02T18:39:12.654Z,89.24
2018-12-02T18:41:44.344Z,90.11
2018-12-02T18:44:16.080Z,91.86
2018-12-02T18:46:46.046Z,92.80
2018-12-02T18:49:16.027Z,91.66
2018-12-02T18:51:46.044Z,90.79
2018-12-02T18:54:16.080Z,91.67
2018-12-02T18:56:46.572Z,91.27
2018-12-02T18:59:16.396Z,91.38
2018-12-02T19:01:46.338Z,91.76
2018-12-02T19:04:16.127Z,91.70
2018-12-02T19:06:46.111Z,91.24
2018-12-02T19:09:16.164Z,90.57
2018-12-02T19:11:46.145Z,91.12
2018-12-02T19:14:15.929Z,91.89
2018-12-02T19:16:46.529Z,91.17
2018-12-02T19:19:16.405Z,90.88
2018-12-02T19:21:46.220Z,90.93
2018-12-02T19:24:16.151Z,90.95
2018-12-02T19:26:45.802Z,91.21
2018-12-02T19:29:15.654Z,92.34
2018-12-02T19:31:46.212Z,93.05
2018-12-02T19:34:16.106Z,92.30
2018-12-02T19:36:50.891Z,91.96
2018-12-02T19:39:20.867Z,92.02
2018-12-02T19:41:50.753Z,92.11
2018-12-02T19:44:20.716Z,92.28
2018-12-02T19:46:50.619Z,92.28
2018-12-02T19:49:20.405Z,91.89
2018-12-02T19:51:50.098Z,91.58
2018-12-02T19:54:19.871Z,91.54
2018-12-02T19:56:49.963Z,92.25
2018-12-02T19:59:19.732Z,93.85
2018-12-02T20:01:49.480Z,93.52
2018-12-02T20:04:19.208Z,93.85
2018-12-02T20:06:49.157Z,93.68
2018-12-02T20:09:19.313Z,94.05
2018-12-02T20:11:49.260Z,94.09
2018-12-02T20:14:18.996Z,94.37
2018-12-02T20:16:48.727Z,95.03
2018-12-02T20:19:23.484Z,94.61
2018-12-02T20:21:53.264Z,93.59
2018-12-02T20:24:27.904Z,93.40
2018-12-02T20:27:08.702Z,93.72
2018-12-02T20:29:38.458Z,93.97
2018-12-02T20:32:09.666Z,94.48
2018-12-02T20:34:39.253Z,94.29
2018-12-02T20:37:08.985Z,95.05
2018-12-02T20:39:38.672Z,95.88
2018-12-02T20:42:08.193Z,95.82
2018-12-02T20:44:37.849Z,95.55
2018-12-02T20:47:07.681Z,95.51
2018-12-02T20:49:37.952Z,95.66
2018-12-02T20:52:07.805Z,96.01
2018-12-02T20:54:37.674Z,95.99
2018-12-02T20:57:07.442Z,95.87
2018-12-02T20:59:37.535Z,95.91
2018-12-02T21:02:07.411Z,95.72
2018-12-02T21:04:36.940Z,96.21
2018-12-02T21:07:06.965Z,96.84
2018-12-02T21:09:36.713Z,97.57
2018-12-02T21:12:06.388Z,97.69
2018-12-02T21:14:36.270Z,97.44
2018-12-02T21:17:05.914Z,97.54
2018-12-02T21:19:35.567Z,97.21
2018-12-02T21:22:05.122Z,96.61
2018-12-02T21:24:34.681Z,96.70
2018-12-02T21:27:04.487Z,96.83
2018-12-02T21:29:34.250Z,97.06
2018-12-02T21:32:03.908Z,96.62
2018-12-02T21:34:33.544Z,96.16
2018-12-02T21:37:03.196Z,96.25
2018-12-02T21:39:32.753Z,96.01
2018-12-02T21:42:02.344Z,95.88
2018-12-02T21:44:32.417Z,95.48
2018-12-02T21:47:02.039Z,95.75
2018-12-02T21:49:31.638Z,95.82
2018-12-02T21:52:02.384Z,96.37
2018-12-02T21:54:31.978Z,95.35
2018-12-02T21:57:01.682Z,95.75
2018-12-02T21:59:31.372Z,96.36
2018-12-02T22:02:00.984Z,96.37
2018-12-02T22:04:34.443Z,95.98
2018-12-02T22:07:04.006Z,96.10
2018-12-02T22:09:33.757Z,96.87
2018-12-02T22:12:03.455Z,96.61
2018-12-02T22:18:26.815Z,96.48
2018-12-02T22:24:22.423Z,96.44
2018-12-02T22:36:35.392Z,97.57
2018-12-02T22:39:44.885Z,96.95
2018-12-02T22:42:34.137Z,97.18
2018-12-02T22:54:48.641Z,97.42
2018-12-02T23:07:02.818Z,96.75
2018-12-02T23:16:05.904Z,97.70
2018-12-02T23:21:58.930Z,97.71
2018-12-02T23:25:08.406Z,98.10
2018-12-02T23:46:30.922Z,99.25
2018-12-02T23:52:29.065Z,99.49
2018-12-02T23:55:19.922Z,99.92
